createdAt,value
2023-04-24T00:00:43.988Z,12.44
2023-04-24T00:01:44.208Z,12.43
2023-04-24T00:02:44.429Z,12.44
2023-04-24T00:03:44.696Z,12.44
2023-04-24T00:04:44.937Z,12.44
2023-04-24T00:05:45.100Z,12.47
2023-04-24T00:06:45.309Z,12.44
2023-04-24T00:07:45.468Z,12.43
2023-04-24T00:08:45.643Z,12.40
2023-04-24T00:09:45.848Z,12.40
2023-04-24T00:10:45.960Z,12.37
2023-04-24T00:11:46.137Z,12.36
2023-04-24T00:12:46.287Z,12.36
2023-04-24T00:13:46.559Z,12.33
2023-04-24T00:14:46.727Z,12.35
2023-04-24T00:15:46.908Z,12.35
2023-04-24T00:16:47.223Z,12.36
2023-04-24T00:17:47.340Z,12.36
2023-04-24T00:18:47.503Z,12.35
2023-04-24T00:19:47.775Z,12.32
2023-04-24T00:20:47.941Z,12.33
2023-04-24T00:21:48.214Z,12.30
2023-04-24T00:22:48.366Z,12.30
2023-04-24T00:23:48.650Z,12.29
2023-04-24T00:24:48.838Z,12.29
2023-04-24T00:25:48.992Z,12.28
2023-04-24T00:26:49.172Z,12.28
2023-04-24T00:27:49.349Z,12.29
2023-04-24T00:28:49.517Z,12.26
2023-04-24T00:29:49.693Z,12.26
2023-04-24T00:30:49.845Z,12.23
2023-04-24T00:31:50.077Z,12.25
2023-04-24T00:32:50.249Z,12.21
2023-04-24T00:33:50.368Z,12.25
2023-04-24T00:34:50.520Z,12.25
2023-04-24T00:35:50.781Z,12.25
2023-04-24T00:36:50.959Z,12.26
2023-04-24T00:37:51.125Z,12.23
2023-04-24T00:38:51.276Z,12.23
2023-04-24T00:39:51.472Z,12.25
2023-04-24T00:40:51.633Z,12.25
2023-04-24T00:41:51.902Z,12.21
2023-04-24T00:42:52.052Z,12.21
2023-04-24T00:43:52.325Z,12.18
2023-04-24T00:44:52.581Z,12.20
2023-04-24T00:45:52.810Z,12.23
2023-04-24T00:46:52.940Z,12.20
2023-04-24T00:47:53.229Z,12.20
2023-04-24T00:48:53.272Z,12.20
2023-04-24T00:49:53.469Z,12.21
2023-04-24T00:50:53.629Z,12.23
2023-04-24T00:51:53.817Z,12.23
2023-04-24T00:52:54.021Z,12.23
2023-04-24T00:53:54.185Z,12.26
2023-04-24T00:54:54.353Z,12.25
2023-04-24T00:55:54.518Z,12.25
2023-04-24T00:56:54.705Z,12.25
2023-04-24T00:57:54.874Z,12.25
2023-04-24T00:58:55.030Z,12.25
2023-04-24T00:59:55.309Z,12.23
2023-04-24T01:00:55.468Z,12.20
2023-04-24T01:01:55.757Z,12.21
2023-04-24T01:02:55.982Z,12.20
2023-04-24T01:03:56.285Z,12.17
2023-04-24T01:04:56.376Z,12.14
2023-04-24T01:05:56.641Z,12.11
2023-04-24T01:06:56.862Z,12.12
2023-04-24T01:07:56.999Z,12.11
2023-04-24T01:08:57.155Z,12.12
2023-04-24T01:09:57.396Z,12.15
2023-04-24T01:10:57.571Z,12.12
2023-04-24T01:11:57.850Z,12.14
2023-04-24T01:12:58.003Z,12.17
2023-04-24T01:13:58.278Z,12.20
2023-04-24T01:15:05.447Z,12.23
2023-04-24T01:15:58.737Z,12.23
2023-04-24T01:16:58.903Z,12.25
2023-04-24T01:17:59.094Z,12.29
2023-04-24T01:18:59.214Z,12.30
2023-04-24T01:19:59.484Z,12.30
2023-04-24T01:20:59.658Z,12.33
2023-04-24T01:21:59.832Z,12.35
2023-04-24T01:22:59.996Z,12.36
2023-04-24T01:24:00.263Z,12.36
2023-04-24T01:25:00.419Z,12.33
2023-04-24T01:26:00.590Z,12.32
2023-04-24T01:27:00.760Z,12.32
2023-04-24T01:28:00.934Z,12.29
2023-04-24T01:29:01.095Z,12.26
2023-04-24T01:30:01.376Z,12.25
2023-04-24T01:31:01.623Z,12.23
2023-04-24T01:32:01.925Z,12.20
2023-04-24T01:33:02.095Z,12.18
2023-04-24T01:34:02.226Z,12.21
2023-04-24T01:35:02.385Z,12.20
2023-04-24T01:36:02.691Z,12.23
2023-04-24T01:37:02.849Z,12.21
2023-04-24T01:38:02.996Z,12.20
2023-04-24T01:39:03.145Z,12.20
2023-04-24T01:40:03.422Z,12.21
2023-04-24T01:41:03.578Z,12.21
2023-04-24T01:42:03.865Z,12.21
2023-04-24T01:43:04.047Z,12.20
2023-04-24T01:44:04.200Z,12.18
2023-04-24T01:45:04.362Z,12.20
2023-04-24T01:46:04.646Z,12.17
2023-04-24T01:47:04.739Z,12.17
2023-04-24T01:48:04.950Z,12.15
2023-04-24T01:49:05.076Z,12.14
2023-04-24T01:50:05.267Z,12.12
2023-04-24T01:51:05.460Z,12.12
2023-04-24T01:52:05.652Z,12.14
2023-04-24T01:53:05.791Z,12.14
2023-04-24T01:54:06.088Z,12.12
2023-04-24T01:55:06.235Z,12.12
2023-04-24T01:56:06.518Z,12.15
2023-04-24T01:57:06.706Z,12.15
2023-04-24T01:58:06.869Z,12.15
2023-04-24T01:59:07.024Z,12.15
2023-04-24T02:00:07.379Z,12.14
2023-04-24T02:01:07.559Z,12.11
2023-04-24T02:02:07.843Z,12.11
2023-04-24T02:03:08.072Z,12.10
2023-04-24T02:04:08.498Z,12.08
2023-04-24T02:05:08.401Z,12.08
2023-04-24T02:06:08.701Z,12.07
2023-04-24T02:07:08.876Z,12.08
2023-04-24T02:08:09.069Z,12.08
2023-04-24T02:09:09.210Z,12.05
2023-04-24T02:10:09.512Z,12.05
2023-04-24T02:11:09.675Z,12.07
2023-04-24T02:12:09.977Z,12.03
2023-04-24T02:13:10.147Z,12.03
2023-04-24T02:14:10.326Z,12.02
2023-04-24T02:15:10.483Z,12.03
2023-04-24T02:16:10.682Z,12.02
2023-04-24T02:17:10.827Z,12.00
2023-04-24T02:18:10.996Z,12.00
2023-04-24T02:19:11.155Z,12.00
2023-04-24T02:20:11.436Z,11.99
2023-04-24T02:21:11.612Z,11.99
2023-04-24T02:22:11.815Z,12.00
2023-04-24T02:23:12.012Z,12.02
2023-04-24T02:24:12.188Z,12.03
2023-04-24T02:25:12.366Z,12.05
2023-04-24T02:26:12.535Z,12.03
2023-04-24T02:27:12.713Z,12.03
2023-04-24T02:28:12.910Z,12.02
2023-04-24T02:29:13.068Z,12.02
2023-04-24T02:30:13.348Z,12.00
2023-04-24T02:31:13.506Z,12.00
2023-04-24T02:32:13.973Z,11.99
2023-04-24T02:33:14.063Z,11.97
2023-04-24T02:34:14.205Z,12.00
2023-04-24T02:35:14.532Z,11.99
2023-04-24T02:36:14.717Z,12.00
2023-04-24T02:37:14.885Z,12.02
2023-04-24T02:38:15.058Z,12.03
2023-04-24T02:39:15.216Z,12.00
2023-04-24T02:40:15.391Z,12.00
2023-04-24T02:41:15.549Z,12.00
2023-04-24T02:42:15.714Z,12.02
2023-04-24T02:43:15.885Z,11.99
2023-04-24T02:44:16.050Z,12.00
2023-04-24T02:45:16.216Z,12.02
2023-04-24T02:46:16.432Z,12.00
2023-04-24T02:47:16.575Z,11.99
2023-04-24T02:48:16.735Z,11.99
2023-04-24T02:49:16.898Z,11.99
2023-04-24T02:50:17.084Z,11.97
2023-04-24T02:51:17.249Z,11.99
2023-04-24T02:52:17.427Z,12.00
2023-04-24T02:53:17.591Z,12.00
2023-04-24T02:54:17.860Z,12.02
2023-04-24T02:55:18.158Z,12.02
2023-04-24T02:56:18.317Z,12.05
2023-04-24T02:57:18.517Z,12.07
2023-04-24T02:58:18.680Z,12.08
2023-04-24T02:59:18.869Z,12.07
2023-04-24T03:00:19.017Z,12.10
2023-04-24T03:01:19.344Z,12.10
2023-04-24T03:02:19.591Z,12.11
2023-04-24T03:03:19.848Z,12.10
2023-04-24T03:04:20.018Z,12.11
2023-04-24T03:05:20.184Z,12.11
2023-04-24T03:06:20.341Z,12.12
2023-04-24T03:07:20.650Z,12.12
2023-04-24T03:08:27.324Z,12.15
2023-04-24T03:09:21.014Z,12.17
2023-04-24T03:10:21.185Z,12.17
2023-04-24T03:11:21.367Z,12.18
2023-04-24T03:12:21.561Z,12.21
2023-04-24T03:13:21.756Z,12.23
2023-04-24T03:14:21.938Z,12.21
2023-04-24T03:15:22.111Z,12.23
2023-04-24T03:16:22.317Z,12.26
2023-04-24T03:17:22.487Z,12.28
2023-04-24T03:18:22.790Z,12.32
2023-04-24T03:19:22.923Z,12.32
2023-04-24T03:20:23.097Z,12.35
2023-04-24T03:21:23.267Z,12.35
2023-04-24T03:22:23.463Z,12.37
2023-04-24T03:23:23.657Z,12.37
2023-04-24T03:24:23.854Z,12.37
2023-04-24T03:25:24.033Z,12.36
2023-04-24T03:26:24.250Z,12.37
2023-04-24T03:27:24.444Z,12.37
2023-04-24T03:28:24.617Z,12.37
2023-04-24T03:29:24.802Z,12.39
2023-04-24T03:30:24.978Z,12.43
2023-04-24T03:31:25.287Z,12.40
2023-04-24T03:32:26.938Z,12.43
2023-04-24T03:33:25.646Z,12.43
2023-04-24T03:34:25.807Z,12.43
2023-04-24T03:35:26.075Z,12.43
2023-04-24T03:36:26.224Z,12.40
2023-04-24T03:37:26.514Z,12.39
2023-04-24T03:38:26.682Z,12.40
2023-04-24T03:39:26.861Z,12.39
2023-04-24T03:40:27.010Z,12.40
2023-04-24T03:41:27.282Z,12.40
2023-04-24T03:42:27.459Z,12.40
2023-04-24T03:43:27.633Z,12.43
2023-04-24T03:44:27.770Z,12.40
2023-04-24T03:45:28.039Z,12.39
2023-04-24T03:46:28.208Z,12.39
2023-04-24T03:47:28.393Z,12.40
2023-04-24T03:48:28.534Z,12.40
2023-04-24T03:49:28.830Z,12.39
2023-04-24T03:50:29.010Z,12.37
2023-04-24T03:51:29.178Z,12.37
2023-04-24T03:52:29.371Z,12.39
2023-04-24T03:53:29.560Z,12.43
2023-04-24T03:54:29.738Z,12.40
2023-04-24T03:55:29.919Z,12.43
2023-04-24T03:56:30.072Z,12.43
2023-04-24T03:57:30.356Z,12.43
2023-04-24T03:58:30.543Z,12.44
2023-04-24T03:59:30.720Z,12.45
2023-04-24T04:00:30.875Z,12.47
2023-04-24T04:01:31.168Z,12.47
2023-04-24T04:02:31.475Z,12.47
2023-04-24T04:03:31.605Z,12.48
2023-04-24T04:04:32.037Z,12.50
2023-04-24T04:05:31.984Z,12.51
2023-04-24T04:06:32.102Z,12.53
2023-04-24T04:07:32.280Z,12.53
2023-04-24T04:08:32.449Z,12.53
2023-04-24T04:09:32.608Z,12.55
2023-04-24T04:10:32.785Z,12.54
2023-04-24T04:11:32.958Z,12.55
2023-04-24T04:12:33.137Z,12.57
2023-04-24T04:13:33.334Z,12.57
2023-04-24T04:14:33.484Z,12.57
2023-04-24T04:15:33.748Z,12.57
2023-04-24T04:16:34.084Z,12.55
2023-04-24T04:17:34.302Z,12.55
2023-04-24T04:18:34.432Z,12.55
2023-04-24T04:19:34.566Z,12.55
2023-04-24T04:20:34.731Z,12.57
2023-04-24T04:21:34.900Z,12.58
2023-04-24T04:22:35.070Z,12.57
2023-04-24T04:23:35.253Z,12.57
2023-04-24T04:24:35.425Z,12.57
2023-04-24T04:25:35.590Z,12.57
2023-04-24T04:26:35.745Z,12.57
2023-04-24T04:27:35.939Z,12.57
2023-04-24T04:28:36.123Z,12.55
2023-04-24T04:29:36.296Z,12.55
2023-04-24T04:30:36.438Z,12.58
2023-04-24T04:31:36.665Z,12.61
2023-04-24T04:32:36.838Z,12.61
2023-04-24T04:33:36.976Z,12.62
2023-04-24T04:34:37.137Z,12.63
2023-04-24T04:35:37.294Z,12.65
2023-04-24T04:36:37.453Z,12.66
2023-04-24T04:37:37.734Z,12.66
2023-04-24T04:38:37.890Z,12.66
2023-04-24T04:39:38.070Z,12.69
2023-04-24T04:40:38.233Z,12.69
2023-04-24T04:41:38.413Z,12.69
2023-04-24T04:42:38.576Z,12.72
2023-04-24T04:43:38.736Z,12.75
2023-04-24T04:44:38.904Z,12.78
2023-04-24T04:45:39.194Z,12.80
2023-04-24T04:46:39.337Z,12.83
2023-04-24T04:47:39.530Z,12.84
2023-04-24T04:48:39.702Z,12.87
2023-04-24T04:49:39.915Z,12.91
2023-04-24T04:50:40.069Z,12.90
2023-04-24T04:51:41.823Z,12.94
2023-04-24T04:52:40.400Z,12.94
2023-04-24T04:53:40.578Z,12.94
2023-04-24T04:54:40.765Z,12.98
2023-04-24T04:55:40.944Z,12.98
2023-04-24T04:56:41.110Z,13.01
2023-04-24T04:57:41.363Z,13.01
2023-04-24T04:58:41.468Z,13.05
2023-04-24T04:59:41.771Z,13.06
2023-04-24T05:00:41.769Z,13.12
2023-04-24T05:01:42.114Z,13.13
2023-04-24T05:02:42.380Z,13.16
2023-04-24T05:03:42.466Z,13.19
2023-04-24T05:04:42.664Z,13.19
2023-04-24T05:05:42.758Z,13.20
2023-04-24T05:06:42.897Z,13.23
2023-04-24T05:07:50.241Z,13.23
2023-04-24T05:08:43.360Z,13.26
2023-04-24T05:09:43.721Z,13.26
2023-04-24T05:10:44.476Z,13.28
2023-04-24T05:11:43.956Z,13.31
2023-04-24T05:12:46.228Z,13.33
2023-04-24T05:13:44.277Z,13.33
2023-04-24T05:14:44.493Z,13.36
2023-04-24T05:15:44.654Z,13.36
2023-04-24T05:16:44.817Z,13.39
2023-04-24T05:17:45.135Z,13.40
2023-04-24T05:18:45.229Z,13.42
2023-04-24T05:19:45.601Z,13.43
2023-04-24T05:20:45.584Z,13.43
2023-04-24T05:21:45.851Z,13.46
2023-04-24T05:22:45.994Z,13.49
2023-04-24T05:23:46.361Z,13.49
2023-04-24T05:24:46.380Z,13.52
2023-04-24T05:25:46.795Z,13.54
2023-04-24T05:26:46.832Z,13.55
2023-04-24T05:27:47.075Z,13.55
2023-04-24T05:28:47.238Z,13.60
2023-04-24T05:29:47.394Z,13.65
2023-04-24T05:30:47.543Z,13.70
2023-04-24T05:31:47.834Z,13.65
2023-04-24T05:32:48.198Z,13.65
2023-04-24T05:33:48.201Z,13.65
2023-04-24T05:34:48.331Z,13.64
2023-04-24T05:35:48.583Z,13.65
2023-04-24T05:36:48.778Z,13.65
2023-04-24T05:37:48.921Z,13.68
2023-04-24T05:38:49.198Z,13.73
2023-04-24T05:39:49.353Z,13.71
2023-04-24T05:40:49.509Z,13.78
2023-04-24T05:41:49.643Z,13.80
2023-04-24T05:42:49.895Z,13.79
2023-04-24T05:43:50.163Z,13.82
2023-04-24T05:44:52.035Z,13.86
2023-04-24T05:45:50.560Z,13.89
2023-04-24T05:46:50.836Z,13.85
2023-04-24T05:47:50.950Z,14.00
2023-04-24T05:48:51.057Z,14.20
2023-04-24T05:49:51.199Z,14.48
2023-04-24T05:50:51.339Z,14.53
2023-04-24T05:51:51.510Z,14.62
2023-04-24T05:52:51.654Z,14.71
2023-04-24T05:53:51.802Z,14.73
2023-04-24T05:54:51.938Z,14.74
2023-04-24T05:55:52.203Z,14.94
2023-04-24T05:56:52.855Z,15.29
2023-04-24T05:57:52.578Z,15.66
2023-04-24T05:58:52.755Z,15.88
2023-04-24T05:59:52.894Z,16.10
2023-04-24T06:00:53.025Z,16.18
2023-04-24T06:01:53.178Z,16.05
2023-04-24T06:02:53.585Z,16.06
2023-04-24T06:03:53.776Z,16.06
2023-04-24T06:04:53.642Z,15.70
2023-04-24T06:05:53.739Z,15.75
2023-04-24T06:06:53.846Z,16.08
2023-04-24T06:07:54.076Z,16.24
2023-04-24T06:08:54.221Z,16.41
2023-04-24T06:09:54.370Z,16.58
2023-04-24T06:10:54.504Z,16.59
2023-04-24T06:11:54.656Z,16.80
2023-04-24T06:12:54.754Z,16.83
2023-04-24T06:13:54.896Z,16.84
2023-04-24T06:14:55.041Z,16.86
2023-04-24T06:15:55.234Z,16.55
2023-04-24T06:16:55.343Z,16.02
2023-04-24T06:17:55.630Z,16.08
2023-04-24T06:18:55.723Z,15.94
2023-04-24T06:19:55.900Z,15.59
2023-04-24T06:20:56.002Z,15.63
2023-04-24T06:21:56.127Z,15.78
2023-04-24T06:22:56.262Z,16.05
2023-04-24T06:23:56.413Z,16.10
2023-04-24T06:24:56.549Z,16.58
2023-04-24T06:25:56.665Z,17.07
2023-04-24T06:26:56.788Z,17.27
2023-04-24T06:27:56.919Z,17.57
2023-04-24T06:28:57.034Z,18.11
2023-04-24T06:29:57.177Z,18.15
2023-04-24T06:30:57.281Z,18.15
2023-04-24T06:31:57.586Z,18.73
2023-04-24T06:33:03.109Z,18.68
2023-04-24T06:33:58.791Z,19.34
2023-04-24T06:34:59.517Z,19.99
2023-04-24T06:35:58.043Z,20.30
2023-04-24T06:36:58.167Z,20.64
2023-04-24T06:37:58.300Z,20.42
2023-04-24T06:38:58.386Z,20.29
2023-04-24T06:39:58.468Z,20.04
2023-04-24T06:40:58.572Z,20.27
2023-04-24T06:41:58.664Z,20.49
2023-04-24T06:42:58.748Z,20.78
2023-04-24T06:43:58.976Z,20.27
2023-04-24T06:44:59.040Z,19.72
2023-04-24T06:45:59.336Z,19.37
2023-04-24T06:46:59.376Z,19.34
2023-04-24T06:47:59.576Z,18.60
2023-04-24T06:48:59.650Z,18.31
2023-04-24T06:49:59.735Z,18.36
2023-04-24T06:50:59.842Z,18.78
2023-04-24T06:51:59.941Z,19.04
2023-04-24T06:53:00.022Z,19.42
2023-04-24T06:54:00.246Z,19.74
2023-04-24T06:55:00.337Z,19.67
2023-04-24T06:56:00.415Z,19.75
2023-04-24T06:57:00.772Z,19.87
2023-04-24T06:58:00.688Z,19.29
2023-04-24T06:59:00.775Z,18.94
2023-04-24T07:00:00.857Z,18.88
2023-04-24T07:01:00.950Z,19.04
2023-04-24T07:02:01.049Z,19.16
2023-04-24T07:03:01.269Z,18.97
2023-04-24T07:04:01.555Z,18.70
2023-04-24T07:05:01.439Z,18.27
2023-04-24T07:06:01.644Z,18.12
2023-04-24T07:07:01.718Z,17.84
2023-04-24T07:08:01.831Z,18.49
2023-04-24T07:09:01.985Z,19.63
2023-04-24T07:10:02.042Z,20.19
2023-04-24T07:11:02.138Z,20.24
2023-04-24T07:12:02.212Z,19.67
2023-04-24T07:13:02.574Z,18.89
2023-04-24T07:14:02.388Z,18.88
2023-04-24T07:15:02.456Z,19.87
2023-04-24T07:16:02.740Z,19.52
2023-04-24T07:17:02.816Z,19.87
2023-04-24T07:18:04.974Z,20.02
2023-04-24T07:19:02.959Z,19.85
2023-04-24T07:20:03.062Z,19.29
2023-04-24T07:21:03.125Z,18.30
2023-04-24T07:22:03.209Z,18.11
2023-04-24T07:23:03.290Z,17.93
2023-04-24T07:24:03.382Z,17.73
2023-04-24T07:25:03.464Z,18.09
2023-04-24T07:26:03.548Z,18.00
2023-04-24T07:27:03.633Z,18.08
2023-04-24T07:28:03.727Z,18.15
2023-04-24T07:29:03.834Z,18.94
2023-04-24T07:30:03.909Z,18.74
2023-04-24T07:31:04.212Z,19.24
2023-04-24T07:32:04.509Z,19.99
2023-04-24T07:33:04.463Z,20.88
2023-04-24T07:34:04.515Z,20.71
2023-04-24T07:35:04.611Z,20.82
2023-04-24T07:36:04.688Z,20.71
2023-04-24T07:37:04.787Z,20.67
2023-04-24T07:38:04.862Z,20.67
2023-04-24T07:39:04.948Z,20.95
2023-04-24T07:40:05.025Z,21.11
2023-04-24T07:41:05.107Z,21.01
2023-04-24T07:42:05.220Z,20.92
2023-04-24T07:43:05.274Z,21.25
2023-04-24T07:44:05.323Z,20.85
2023-04-24T07:45:05.405Z,20.55
2023-04-24T07:46:07.106Z,21.10
2023-04-24T07:47:05.712Z,21.50
2023-04-24T07:48:05.951Z,21.28
2023-04-24T07:49:13.084Z,21.41
2023-04-24T07:50:06.830Z,21.62
2023-04-24T07:51:05.946Z,20.98
2023-04-24T07:52:06.011Z,21.25
2023-04-24T07:53:06.110Z,21.59
2023-04-24T07:54:06.176Z,22.04
2023-04-24T07:55:06.249Z,22.00
2023-04-24T07:56:06.319Z,22.22
2023-04-24T07:57:06.370Z,22.03
2023-04-24T07:58:06.437Z,22.33
2023-04-24T07:59:06.506Z,22.15
2023-04-24T08:00:06.540Z,22.46
2023-04-24T08:01:06.633Z,21.62
2023-04-24T08:02:06.658Z,20.58
2023-04-24T08:03:06.810Z,20.85
2023-04-24T08:04:07.240Z,21.75
2023-04-24T08:05:06.919Z,21.53
2023-04-24T08:06:07.066Z,21.65
2023-04-24T08:07:07.093Z,21.43
2023-04-24T08:08:07.119Z,21.70
2023-04-24T08:09:07.169Z,22.28
2023-04-24T08:10:07.223Z,23.06
2023-04-24T08:11:07.262Z,23.20
2023-04-24T08:12:07.316Z,23.11
2023-04-24T08:13:07.365Z,22.59
2023-04-24T08:14:07.470Z,21.53
2023-04-24T08:15:07.521Z,21.22
2023-04-24T08:16:07.592Z,21.05
2023-04-24T08:17:07.696Z,20.80
2023-04-24T08:18:07.786Z,20.73
2023-04-24T08:19:07.834Z,20.56
2023-04-24T08:20:07.893Z,20.86
2023-04-24T08:21:07.964Z,21.15
2023-04-24T08:22:08.035Z,20.60
2023-04-24T08:23:08.139Z,19.92
2023-04-24T08:24:08.213Z,19.24
2023-04-24T08:25:08.283Z,18.82
2023-04-24T08:26:08.348Z,18.64
2023-04-24T08:27:08.430Z,19.19
2023-04-24T08:28:08.501Z,19.64
2023-04-24T08:29:08.634Z,19.82
2023-04-24T08:30:08.689Z,19.93
2023-04-24T08:31:08.961Z,20.04
2023-04-24T08:32:09.127Z,20.04
2023-04-24T08:33:09.118Z,20.18
2023-04-24T08:34:09.159Z,20.24
2023-04-24T08:35:09.240Z,19.77
2023-04-24T08:36:09.348Z,19.72
2023-04-24T08:37:09.462Z,19.71
2023-04-24T08:38:09.528Z,19.57
2023-04-24T08:39:09.671Z,19.57
2023-04-24T08:40:09.771Z,19.64
2023-04-24T08:41:09.837Z,19.60
2023-04-24T08:42:09.916Z,19.34
2023-04-24T08:43:09.996Z,19.24
2023-04-24T08:44:10.699Z,18.88
2023-04-24T08:45:10.174Z,19.04
2023-04-24T08:46:12.132Z,19.32
2023-04-24T08:47:10.442Z,19.66
2023-04-24T08:48:19.881Z,20.14
2023-04-24T08:49:11.615Z,20.70
2023-04-24T08:50:10.709Z,20.66
2023-04-24T08:51:10.782Z,20.37
2023-04-24T08:52:10.823Z,20.10
2023-04-24T08:53:10.931Z,19.84
2023-04-24T08:54:11.010Z,19.79
2023-04-24T08:55:11.107Z,19.94
2023-04-24T08:56:11.185Z,20.32
2023-04-24T08:57:11.288Z,20.60
2023-04-24T08:58:11.362Z,20.26
2023-04-24T08:59:11.453Z,19.90
2023-04-24T09:00:12.328Z,19.41
2023-04-24T09:01:11.678Z,18.98
2023-04-24T09:02:12.600Z,18.46
2023-04-24T09:03:12.029Z,18.33
2023-04-24T09:04:12.426Z,18.26
2023-04-24T09:05:12.128Z,18.24
2023-04-24T09:06:12.201Z,18.36
2023-04-24T09:07:12.402Z,18.66
2023-04-24T09:08:12.486Z,18.88
2023-04-24T09:09:12.627Z,18.96
2023-04-24T09:10:12.729Z,18.89
2023-04-24T09:11:12.870Z,18.89
2023-04-24T09:12:12.956Z,18.78
2023-04-24T09:13:13.040Z,18.74
2023-04-24T09:14:13.123Z,18.68
2023-04-24T09:15:13.219Z,18.58
2023-04-24T09:16:13.363Z,18.15
2023-04-24T09:17:13.638Z,18.06
2023-04-24T09:18:13.624Z,18.19
2023-04-24T09:19:13.686Z,18.16
2023-04-24T09:20:13.777Z,18.18
2023-04-24T09:21:13.899Z,17.97
2023-04-24T09:22:13.998Z,17.98
2023-04-24T09:23:14.098Z,18.05
2023-04-24T09:24:14.209Z,17.98
2023-04-24T09:25:14.298Z,17.97
2023-04-24T09:26:14.391Z,18.34
2023-04-24T09:27:15.105Z,18.64
2023-04-24T09:28:14.825Z,18.71
2023-04-24T09:29:14.798Z,18.63
2023-04-24T09:30:14.897Z,18.58
2023-04-24T09:31:15.083Z,18.76
2023-04-24T09:32:15.144Z,18.58
2023-04-24T09:33:15.274Z,18.53
2023-04-24T09:34:15.366Z,18.45
2023-04-24T09:35:15.477Z,18.23
2023-04-24T09:36:15.589Z,18.16
2023-04-24T09:37:15.695Z,18.16
2023-04-24T09:38:15.798Z,18.27
2023-04-24T09:39:15.928Z,18.27
2023-04-24T09:40:16.031Z,18.43
2023-04-24T09:41:16.120Z,18.43
2023-04-24T09:42:16.220Z,18.24
2023-04-24T09:43:16.401Z,18.19
2023-04-24T09:44:16.594Z,18.37
2023-04-24T09:45:16.689Z,18.51
2023-04-24T09:46:16.837Z,18.37
2023-04-24T09:47:16.881Z,18.43
2023-04-24T09:48:16.982Z,18.31
2023-04-24T09:49:17.079Z,18.31
2023-04-24T09:50:17.710Z,18.21
2023-04-24T09:51:17.288Z,18.37
2023-04-24T09:52:17.379Z,18.52
2023-04-24T09:53:17.490Z,18.53
2023-04-24T09:54:17.580Z,18.73
2023-04-24T09:55:17.693Z,18.68
2023-04-24T09:56:17.778Z,18.55
2023-04-24T09:57:17.863Z,18.63
2023-04-24T09:58:17.945Z,18.52
2023-04-24T09:59:18.151Z,18.71
2023-04-24T10:00:18.224Z,18.55
2023-04-24T10:01:18.385Z,18.48
2023-04-24T10:02:18.442Z,18.76
2023-04-24T10:03:18.569Z,18.98
2023-04-24T10:04:18.718Z,19.35
2023-04-24T10:05:18.770Z,19.97
2023-04-24T10:06:18.850Z,19.92
2023-04-24T10:07:18.934Z,20.14
2023-04-24T10:08:19.001Z,20.46
2023-04-24T10:09:19.077Z,20.55
2023-04-24T10:10:19.150Z,19.89
2023-04-24T10:11:19.212Z,19.82
2023-04-24T10:12:19.264Z,20.30
2023-04-24T10:13:19.345Z,20.56
2023-04-24T10:14:19.391Z,20.29
2023-04-24T10:15:19.552Z,20.52
2023-04-24T10:16:19.543Z,20.74
2023-04-24T10:17:19.611Z,20.86
2023-04-24T10:18:19.692Z,20.90
2023-04-24T10:19:19.812Z,20.82
2023-04-24T10:20:19.813Z,20.15
2023-04-24T10:21:19.866Z,20.44
2023-04-24T10:22:19.912Z,20.56
2023-04-24T10:23:20.037Z,20.42
2023-04-24T10:24:20.054Z,20.12
2023-04-24T10:25:20.124Z,19.37
2023-04-24T10:26:20.173Z,19.07
2023-04-24T10:27:20.230Z,18.83
2023-04-24T10:28:20.287Z,18.66
2023-04-24T10:29:20.362Z,18.66
2023-04-24T10:30:20.421Z,18.66
2023-04-24T10:31:20.521Z,18.76
2023-04-24T10:32:20.635Z,18.30
2023-04-24T10:33:20.716Z,18.12
2023-04-24T10:34:20.856Z,18.06
2023-04-24T10:35:20.924Z,17.87
2023-04-24T10:36:21.004Z,17.88
2023-04-24T10:37:21.237Z,17.82
2023-04-24T10:38:21.324Z,17.79
2023-04-24T10:39:27.171Z,17.65
2023-04-24T10:40:22.606Z,17.60
2023-04-24T10:41:21.701Z,17.59
2023-04-24T10:42:21.800Z,17.60
2023-04-24T10:43:21.902Z,17.66
2023-04-24T10:44:22.026Z,17.60
2023-04-24T10:45:22.174Z,17.56
2023-04-24T10:46:22.285Z,17.52
2023-04-24T10:47:22.661Z,17.57
2023-04-24T10:48:22.668Z,17.68
2023-04-24T10:49:22.808Z,17.65
2023-04-24T10:50:22.929Z,17.72
2023-04-24T10:51:23.043Z,17.86
2023-04-24T10:52:23.143Z,17.84
2023-04-24T10:53:23.259Z,17.57
2023-04-24T10:54:23.386Z,17.54
2023-04-24T10:55:23.511Z,17.75
2023-04-24T10:56:23.642Z,17.87
2023-04-24T10:57:23.780Z,18.02
2023-04-24T10:58:23.884Z,18.58
2023-04-24T10:59:24.038Z,19.01
2023-04-24T11:00:24.163Z,19.09
2023-04-24T11:01:24.330Z,19.32
2023-04-24T11:02:24.432Z,19.52
2023-04-24T11:03:24.831Z,20.02
2023-04-24T11:04:24.824Z,20.21
2023-04-24T11:05:24.991Z,20.03
2023-04-24T11:06:25.137Z,20.50
2023-04-24T11:07:25.267Z,20.98
2023-04-24T11:08:32.312Z,21.04
2023-04-24T11:09:25.369Z,21.01
2023-04-24T11:10:25.531Z,20.70
2023-04-24T11:11:25.592Z,20.37
2023-04-24T11:12:25.708Z,20.07
2023-04-24T11:13:25.757Z,19.24
2023-04-24T11:14:25.807Z,18.85
2023-04-24T11:15:25.909Z,19.07
2023-04-24T11:16:26.043Z,19.04
2023-04-24T11:17:26.157Z,19.16
2023-04-24T11:18:26.179Z,19.77
2023-04-24T11:19:26.290Z,20.00
2023-04-24T11:20:28.080Z,20.36
2023-04-24T11:21:26.405Z,20.36
2023-04-24T11:22:26.497Z,19.42
2023-04-24T11:23:26.561Z,19.16
2023-04-24T11:24:26.618Z,18.66
2023-04-24T11:25:26.701Z,18.45
2023-04-24T11:26:26.782Z,18.55
2023-04-24T11:27:26.858Z,18.67
2023-04-24T11:28:26.947Z,18.82
2023-04-24T11:29:27.419Z,18.91
2023-04-24T11:30:27.123Z,18.82
2023-04-24T11:31:27.279Z,18.52
2023-04-24T11:32:27.407Z,18.74
2023-04-24T11:33:27.552Z,19.11
2023-04-24T11:34:27.653Z,19.27
2023-04-24T11:35:27.771Z,18.82
2023-04-24T11:36:27.877Z,18.23
2023-04-24T11:37:28.011Z,18.23
2023-04-24T11:38:28.136Z,18.08
2023-04-24T11:39:28.211Z,17.87
2023-04-24T11:40:28.334Z,18.08
2023-04-24T11:41:28.419Z,17.79
2023-04-24T11:42:28.507Z,17.56
2023-04-24T11:43:28.599Z,17.47
2023-04-24T11:44:28.698Z,17.47
2023-04-24T11:45:28.792Z,17.30
2023-04-24T11:46:29.039Z,17.50
2023-04-24T11:47:29.030Z,17.72
2023-04-24T11:48:29.122Z,17.90
2023-04-24T11:49:29.205Z,17.87
2023-04-24T11:50:29.330Z,17.86
2023-04-24T11:51:33.584Z,17.90
2023-04-24T11:52:30.660Z,18.05
2023-04-24T11:53:29.739Z,18.18
2023-04-24T11:54:29.833Z,18.41
2023-04-24T11:55:30.064Z,18.46
2023-04-24T11:56:30.240Z,18.78
2023-04-24T11:57:30.394Z,19.07
2023-04-24T11:58:30.742Z,19.22
2023-04-24T11:59:30.569Z,18.88
2023-04-24T12:00:30.697Z,19.20
2023-04-24T12:01:31.195Z,19.60
2023-04-24T12:02:31.069Z,19.34
2023-04-24T12:03:31.211Z,18.97
2023-04-24T12:04:32.411Z,18.66
2023-04-24T12:05:31.249Z,18.12
2023-04-24T12:06:31.311Z,18.11
2023-04-24T12:07:31.484Z,18.31
2023-04-24T12:08:31.586Z,18.45
2023-04-24T12:09:31.691Z,18.36
2023-04-24T12:10:31.835Z,18.36
2023-04-24T12:11:31.966Z,18.42
2023-04-24T12:12:32.164Z,18.33
2023-04-24T12:13:32.352Z,18.06
2023-04-24T12:14:32.410Z,18.27
2023-04-24T12:15:32.766Z,18.39
2023-04-24T12:16:32.791Z,18.83
2023-04-24T12:17:33.091Z,20.24
2023-04-24T12:18:32.923Z,21.37
2023-04-24T12:19:33.071Z,21.40
2023-04-24T12:20:33.149Z,21.28
2023-04-24T12:21:33.197Z,21.04
2023-04-24T12:22:33.397Z,21.00
2023-04-24T12:23:33.455Z,20.74
2023-04-24T12:24:33.652Z,20.44
2023-04-24T12:25:34.060Z,20.29
2023-04-24T12:26:33.881Z,19.96
2023-04-24T12:27:33.967Z,19.89
2023-04-24T12:28:34.043Z,19.47
2023-04-24T12:29:34.132Z,19.44
2023-04-24T12:30:34.258Z,19.55
2023-04-24T12:31:34.405Z,19.47
2023-04-24T12:32:34.555Z,19.45
2023-04-24T12:33:34.595Z,19.42
2023-04-24T12:34:34.810Z,19.62
2023-04-24T12:35:35.266Z,20.34
2023-04-24T12:36:35.011Z,20.93
2023-04-24T12:37:35.146Z,20.88
2023-04-24T12:38:35.218Z,20.56
2023-04-24T12:39:35.306Z,20.42
2023-04-24T12:40:35.428Z,20.00
2023-04-24T12:41:35.507Z,20.22
2023-04-24T12:42:35.702Z,20.78
2023-04-24T12:43:35.793Z,21.13
2023-04-24T12:44:35.989Z,21.66
2023-04-24T12:45:35.966Z,21.63
2023-04-24T12:46:36.053Z,21.80
2023-04-24T12:47:36.165Z,21.62
2023-04-24T12:48:36.309Z,21.11
2023-04-24T12:49:36.368Z,20.56
2023-04-24T12:50:36.534Z,20.36
2023-04-24T12:51:36.603Z,20.04
2023-04-24T12:52:36.702Z,19.94
2023-04-24T12:53:36.780Z,19.78
2023-04-24T12:54:36.941Z,19.75